createdAt,value
2022-08-16T00:00:04.498Z,67.65
2022-08-16T00:01:00.938Z,67.25
2022-08-16T00:02:00.178Z,67.25
2022-08-16T00:03:00.299Z,67.25
2022-08-16T00:04:00.464Z,67.35
2022-08-16T00:05:00.648Z,67.44
2022-08-16T00:06:00.818Z,67.44
2022-08-16T00:07:00.978Z,67.25
2022-08-16T00:08:01.178Z,67.05
2022-08-16T00:09:01.317Z,67.25
2022-08-16T00:10:01.507Z,67.25
2022-08-16T00:11:01.678Z,67.25
2022-08-16T00:12:01.862Z,67.25
2022-08-16T00:13:02.046Z,67.35
2022-08-16T00:14:02.223Z,67.25
2022-08-16T00:15:03.389Z,67.35
2022-08-16T00:16:02.579Z,67.35
2022-08-16T00:17:15.753Z,67.38
2022-08-16T00:18:03.935Z,67.48
2022-08-16T00:19:03.102Z,67.48
2022-08-16T00:20:03.969Z,67.58
2022-08-16T00:21:03.840Z,67.48
2022-08-16T00:22:06.784Z,67.68
2022-08-16T00:23:04.807Z,67.68
2022-08-16T00:24:04.701Z,67.58
2022-08-16T00:25:04.156Z,67.68
2022-08-16T00:26:36.371Z,67.77
2022-08-16T00:27:05.533Z,67.77
2022-08-16T00:28:04.695Z,67.87
2022-08-16T00:29:04.860Z,68.01
2022-08-16T00:30:09.300Z,68.01
2022-08-16T00:31:06.237Z,67.87
2022-08-16T00:32:06.319Z,67.91
2022-08-16T00:33:05.575Z,67.81
2022-08-16T00:34:05.758Z,67.91
2022-08-16T00:35:13.309Z,67.81
2022-08-16T00:36:07.119Z,67.91
2022-08-16T00:37:06.276Z,68.01
2022-08-16T00:38:41.045Z,67.91
2022-08-16T00:39:07.630Z,68.01
2022-08-16T00:40:07.854Z,67.91
2022-08-16T00:41:08.009Z,68.01
2022-08-16T00:42:10.101Z,67.91
2022-08-16T00:43:12.179Z,68.01
2022-08-16T00:44:08.520Z,68.01
2022-08-16T00:45:08.608Z,68.01
2022-08-16T00:46:34.336Z,68.01
2022-08-16T00:47:09.044Z,68.01
2022-08-16T00:48:30.679Z,68.10
2022-08-16T00:49:17.225Z,68.20
2022-08-16T00:50:11.813Z,68.30
2022-08-16T00:51:08.730Z,67.91
2022-08-16T00:52:29.674Z,67.91
2022-08-16T00:53:10.075Z,67.91
2022-08-16T00:54:09.245Z,67.91
2022-08-16T00:55:09.442Z,67.91
2022-08-16T00:56:09.607Z,67.91
2022-08-16T00:57:11.618Z,67.81
2022-08-16T00:58:12.976Z,67.81
2022-08-16T00:59:11.120Z,67.71
2022-08-16T01:00:10.345Z,67.71
2022-08-16T01:01:10.467Z,67.81
2022-08-16T01:02:30.554Z,67.81
2022-08-16T01:03:12.816Z,67.81
2022-08-16T01:04:29.605Z,68.01
2022-08-16T01:05:12.295Z,68.01
2022-08-16T01:06:40.851Z,68.10
2022-08-16T01:07:12.517Z,68.30
2022-08-16T01:08:35.071Z,68.30
2022-08-16T01:09:12.856Z,67.91
2022-08-16T01:10:16.042Z,68.01
2022-08-16T01:11:13.202Z,67.91
2022-08-16T01:12:26.467Z,68.20
2022-08-16T01:13:15.235Z,67.91
2022-08-16T01:14:12.683Z,67.91
2022-08-16T01:15:12.844Z,68.10
2022-08-16T01:16:13.041Z,68.20
2022-08-16T01:17:14.194Z,68.10
2022-08-16T01:18:39.484Z,67.81
2022-08-16T01:19:15.371Z,67.91
2022-08-16T01:20:24.479Z,68.10
2022-08-16T01:21:14.875Z,67.71
2022-08-16T01:22:49.607Z,67.91
2022-08-16T01:23:17.051Z,68.01
2022-08-16T01:24:52.091Z,68.01
2022-08-16T01:25:15.547Z,67.81
2022-08-16T01:26:33.799Z,67.81
2022-08-16T01:27:15.867Z,67.61
2022-08-16T01:28:19.992Z,67.51
2022-08-16T01:29:16.228Z,67.71
2022-08-16T01:30:19.691Z,67.81
2022-08-16T01:31:16.553Z,67.71
2022-08-16T01:32:15.700Z,67.51
2022-08-16T01:33:16.869Z,67.41
2022-08-16T01:34:23.419Z,67.41
2022-08-16T01:35:17.788Z,67.41
2022-08-16T01:36:16.421Z,67.51
2022-08-16T01:37:16.609Z,67.51
2022-08-16T01:38:19.717Z,67.61
2022-08-16T01:39:16.962Z,67.61
2022-08-16T01:40:17.123Z,67.61
2022-08-16T01:41:19.360Z,67.61
2022-08-16T01:42:19.249Z,67.51
2022-08-16T01:43:17.654Z,67.41
2022-08-16T01:44:18.567Z,67.32
2022-08-16T01:45:19.735Z,67.11
2022-08-16T01:46:31.150Z,67.32
2022-08-16T01:47:19.345Z,67.51
2022-08-16T01:48:20.249Z,67.91
2022-08-16T01:49:18.740Z,67.61
2022-08-16T01:50:43.209Z,67.51
2022-08-16T01:51:20.088Z,67.41
2022-08-16T01:52:29.266Z,67.41
2022-08-16T01:53:20.457Z,67.32
2022-08-16T01:54:30.671Z,67.32
2022-08-16T01:55:20.798Z,67.32
2022-08-16T01:56:24.234Z,67.32
2022-08-16T01:57:22.819Z,67.61
2022-08-16T01:58:21.031Z,67.41
2022-08-16T01:59:20.511Z,67.32
2022-08-16T02:00:20.689Z,67.32
2022-08-16T02:01:21.933Z,67.22
2022-08-16T02:02:26.848Z,67.35
2022-08-16T02:03:24.521Z,67.35
2022-08-16T02:04:48.683Z,67.74
2022-08-16T02:05:23.648Z,67.44
2022-08-16T02:06:33.887Z,67.44
2022-08-16T02:07:23.538Z,67.74
2022-08-16T02:08:33.512Z,68.04
2022-08-16T02:09:23.295Z,67.54
2022-08-16T02:10:22.456Z,67.54
2022-08-16T02:11:22.618Z,67.54
2022-08-16T02:12:50.823Z,67.54
2022-08-16T02:13:27.632Z,67.65
2022-08-16T02:14:26.286Z,67.74
2022-08-16T02:15:24.736Z,67.84
2022-08-16T02:16:23.484Z,67.74
2022-08-16T02:17:23.656Z,67.65
2022-08-16T02:18:23.839Z,67.35
2022-08-16T02:19:24.020Z,67.35
2022-08-16T02:20:26.128Z,67.35
2022-08-16T02:21:31.312Z,67.35
2022-08-16T02:22:35.010Z,67.44
2022-08-16T02:23:25.719Z,67.44
2022-08-16T02:24:31.987Z,67.54
2022-08-16T02:25:26.063Z,67.44
2022-08-16T02:26:26.240Z,67.35
2022-08-16T02:27:25.404Z,67.35
2022-08-16T02:28:25.593Z,67.35
2022-08-16T02:29:32.101Z,67.35
2022-08-16T02:30:36.808Z,67.54
2022-08-16T02:32:02.551Z,67.84
2022-08-16T02:33:02.681Z,67.84
2022-08-16T02:33:43.826Z,67.74
2022-08-16T02:34:32.960Z,67.44
2022-08-16T02:35:27.866Z,67.35
2022-08-16T02:36:47.526Z,67.15
2022-08-16T02:37:51.331Z,67.35
2022-08-16T02:38:28.405Z,67.44
2022-08-16T02:39:27.576Z,67.44
2022-08-16T02:40:27.736Z,67.35
2022-08-16T02:41:27.915Z,67.25
2022-08-16T02:42:28.096Z,67.25
2022-08-16T02:43:28.297Z,67.25
2022-08-16T02:44:28.685Z,67.18
2022-08-16T02:45:28.633Z,67.38
2022-08-16T02:46:30.212Z,67.48
2022-08-16T02:47:28.989Z,67.58
2022-08-16T02:48:30.920Z,67.68
2022-08-16T02:49:58.500Z,67.48
2022-08-16T02:50:55.463Z,67.68
2022-08-16T02:51:31.320Z,67.77
2022-08-16T02:52:29.870Z,67.48
2022-08-16T02:53:30.051Z,67.87
2022-08-16T02:54:30.200Z,67.68
2022-08-16T02:55:41.309Z,67.87
2022-08-16T02:56:32.109Z,67.68
2022-08-16T02:57:30.722Z,67.77
2022-08-16T02:58:30.866Z,67.77
2022-08-16T02:59:41.470Z,68.17
2022-08-16T03:00:34.975Z,67.97
2022-08-16T03:01:36.457Z,67.97
2022-08-16T03:02:32.579Z,67.68
2022-08-16T03:04:39.926Z,67.58
2022-08-16T03:04:51.078Z,67.28
2022-08-16T03:05:33.095Z,67.48
2022-08-16T03:06:41.500Z,67.97
2022-08-16T03:07:36.967Z,67.58
2022-08-16T03:08:52.040Z,67.68
2022-08-16T03:09:33.808Z,67.77
2022-08-16T03:10:34.174Z,67.48
2022-08-16T03:11:35.541Z,67.68
2022-08-16T03:12:37.669Z,67.77
2022-08-16T03:13:39.987Z,67.48
2022-08-16T03:14:34.661Z,67.87
2022-08-16T03:15:33.838Z,67.38
2022-08-16T03:16:42.022Z,67.58
2022-08-16T03:17:35.200Z,67.97
2022-08-16T03:18:40.298Z,68.17
2022-08-16T03:19:47.444Z,68.07
2022-08-16T03:20:35.718Z,68.07
2022-08-16T03:21:38.005Z,67.58
2022-08-16T03:22:35.067Z,67.48
2022-08-16T03:23:35.849Z,67.38
2022-08-16T03:24:35.413Z,67.58
2022-08-16T03:25:44.142Z,67.38
2022-08-16T03:26:36.783Z,67.48
2022-08-16T03:27:35.923Z,67.48
2022-08-16T03:28:36.092Z,67.38
2022-08-16T03:29:36.246Z,67.38
2022-08-16T03:30:36.423Z,67.28
2022-08-16T03:31:40.634Z,67.58
2022-08-16T03:32:36.785Z,67.48
2022-08-16T03:33:36.961Z,67.68
2022-08-16T03:34:37.128Z,67.48
2022-08-16T03:35:37.311Z,67.38
2022-08-16T03:36:37.480Z,67.48
2022-08-16T03:38:01.768Z,67.68
2022-08-16T03:38:38.837Z,67.58
2022-08-16T03:39:42.994Z,67.38
2022-08-16T03:40:39.208Z,67.38
2022-08-16T03:41:50.054Z,67.38
2022-08-16T03:43:18.787Z,67.38
2022-08-16T03:43:52.029Z,67.38
2022-08-16T03:44:43.253Z,67.58
2022-08-16T03:45:40.021Z,67.68
2022-08-16T03:46:47.570Z,67.48
2022-08-16T03:47:40.381Z,67.48
2022-08-16T03:48:39.875Z,67.48
2022-08-16T03:49:39.712Z,67.48
2022-08-16T03:50:39.864Z,67.28
2022-08-16T03:51:40.033Z,67.38
2022-08-16T03:52:46.058Z,67.38
2022-08-16T03:53:41.607Z,67.28
2022-08-16T03:54:53.005Z,67.28
2022-08-16T03:55:45.388Z,67.18
2022-08-16T03:56:56.751Z,67.18
2022-08-16T03:57:42.095Z,67.28
2022-08-16T03:58:42.249Z,67.41
2022-08-16T03:59:44.321Z,67.28
2022-08-16T04:00:41.598Z,67.28
2022-08-16T04:01:41.797Z,67.32
2022-08-16T04:02:41.961Z,67.21
2022-08-16T04:03:42.114Z,67.41
2022-08-16T04:04:42.278Z,67.41
2022-08-16T04:05:44.061Z,67.41
2022-08-16T04:06:42.604Z,67.32
2022-08-16T04:07:42.789Z,67.11
2022-08-16T04:08:42.977Z,67.32
2022-08-16T04:09:43.150Z,67.21
2022-08-16T04:10:43.317Z,67.41
2022-08-16T04:11:43.497Z,67.32
2022-08-16T04:12:53.877Z,67.41
2022-08-16T04:14:00.497Z,67.71
2022-08-16T04:14:46.920Z,67.80
2022-08-16T04:15:44.200Z,67.91
2022-08-16T04:16:44.354Z,67.91
2022-08-16T04:17:44.545Z,67.71
2022-08-16T04:18:44.717Z,67.80
2022-08-16T04:19:45.739Z,67.41
2022-08-16T04:20:45.055Z,67.21
2022-08-16T04:21:47.286Z,67.21
2022-08-16T04:22:45.399Z,66.92
2022-08-16T04:23:45.586Z,67.02
2022-08-16T04:24:54.341Z,66.78
2022-08-16T04:25:47.256Z,66.82
2022-08-16T04:26:46.759Z,66.92
2022-08-16T04:27:54.376Z,67.02
2022-08-16T04:28:53.697Z,67.32
2022-08-16T04:29:47.652Z,67.32
2022-08-16T04:30:46.797Z,67.21
2022-08-16T04:31:46.983Z,67.11
2022-08-16T04:32:49.079Z,67.11
2022-08-16T04:33:50.708Z,67.02
2022-08-16T04:34:47.461Z,66.82
2022-08-16T04:35:49.585Z,66.82
2022-08-16T04:36:48.901Z,66.92
2022-08-16T04:37:47.976Z,66.82
2022-08-16T04:38:50.090Z,67.02
2022-08-16T04:39:55.621Z,66.92
2022-08-16T04:40:50.092Z,66.82
2022-08-16T04:41:48.623Z,66.72
2022-08-16T04:42:50.026Z,66.92
2022-08-16T04:43:48.964Z,67.02
2022-08-16T04:44:54.221Z,67.11
2022-08-16T04:46:00.049Z,67.11
2022-08-16T04:47:01.219Z,66.92
2022-08-16T04:47:56.322Z,66.92
2022-08-16T04:48:50.823Z,66.92
2022-08-16T04:49:49.985Z,67.11
2022-08-16T04:50:50.165Z,67.41
2022-08-16T04:51:53.786Z,67.21
2022-08-16T04:52:51.506Z,67.11
2022-08-16T04:53:50.676Z,67.21
2022-08-16T04:54:50.869Z,67.02
2022-08-16T04:55:53.387Z,66.92
2022-08-16T04:56:51.169Z,66.82
2022-08-16T04:57:53.514Z,66.82
2022-08-16T04:58:51.503Z,66.72
2022-08-16T04:59:54.157Z,66.92
2022-08-16T05:00:51.822Z,66.92
2022-08-16T05:01:59.291Z,66.92
2022-08-16T05:02:55.659Z,67.21
2022-08-16T05:04:01.423Z,67.02
2022-08-16T05:04:53.505Z,67.02
2022-08-16T05:05:55.874Z,66.82
2022-08-16T05:06:53.873Z,66.92
2022-08-16T05:07:57.730Z,66.92
2022-08-16T05:08:56.367Z,67.21
2022-08-16T05:09:53.352Z,67.11
2022-08-16T05:10:53.523Z,67.21
2022-08-16T05:11:57.230Z,67.21
2022-08-16T05:12:53.856Z,67.21
2022-08-16T05:13:54.045Z,67.11
2022-08-16T05:15:02.588Z,67.02
2022-08-16T05:15:55.416Z,66.92
2022-08-16T05:16:54.561Z,67.02
2022-08-16T05:17:59.139Z,67.02
2022-08-16T05:18:56.615Z,66.92
2022-08-16T05:19:57.638Z,66.92
2022-08-16T05:21:01.359Z,67.32
2022-08-16T05:21:56.407Z,67.11
2022-08-16T05:22:55.578Z,67.21
2022-08-16T05:24:00.235Z,67.21
2022-08-16T05:24:56.932Z,67.11
2022-08-16T05:25:56.098Z,67.11
2022-08-16T05:26:56.768Z,67.02
2022-08-16T05:27:56.587Z,67.02
2022-08-16T05:28:56.614Z,67.02
2022-08-16T05:29:57.557Z,67.11
2022-08-16T05:30:56.942Z,67.11
2022-08-16T05:31:57.123Z,67.21
2022-08-16T05:32:57.283Z,67.21
2022-08-16T05:33:57.464Z,67.32
2022-08-16T05:34:57.628Z,67.21
2022-08-16T05:35:57.792Z,67.21
2022-08-16T05:36:58.699Z,67.21
2022-08-16T05:37:58.135Z,67.21
2022-08-16T05:38:58.323Z,67.21
2022-08-16T05:39:58.516Z,67.11
2022-08-16T05:41:00.135Z,67.11
2022-08-16T05:41:58.822Z,67.32
2022-08-16T05:42:58.995Z,67.21
2022-08-16T05:43:59.381Z,67.21
2022-08-16T05:44:59.332Z,67.21
2022-08-16T05:45:59.501Z,67.11
2022-08-16T05:47:00.257Z,67.08
2022-08-16T05:48:01.460Z,67.08
2022-08-16T05:49:05.871Z,67.08
2022-08-16T05:50:01.168Z,66.88
2022-08-16T05:51:00.338Z,66.88
2022-08-16T05:52:00.520Z,66.99
2022-08-16T05:53:00.668Z,66.88
2022-08-16T05:54:00.832Z,66.78
2022-08-16T05:55:01.808Z,66.78
2022-08-16T05:56:01.172Z,66.69
2022-08-16T05:57:01.352Z,66.59
2022-08-16T05:58:01.514Z,66.69
2022-08-16T05:59:01.672Z,66.69
2022-08-16T06:00:05.656Z,66.59
2022-08-16T06:01:03.051Z,66.69
2022-08-16T06:02:02.188Z,66.88
2022-08-16T06:03:02.373Z,66.88
2022-08-16T06:04:02.516Z,66.99
2022-08-16T06:05:02.675Z,66.99
2022-08-16T06:06:02.864Z,67.08
2022-08-16T06:07:06.800Z,67.08
2022-08-16T06:08:03.176Z,67.08
2022-08-16T06:09:03.348Z,67.08
2022-08-16T06:10:03.527Z,66.88
2022-08-16T06:11:10.349Z,66.88
2022-08-16T06:12:04.852Z,66.69
2022-08-16T06:13:04.010Z,66.78
2022-08-16T06:14:04.168Z,66.59
2022-08-16T06:15:09.767Z,66.59
2022-08-16T06:16:05.513Z,66.59
2022-08-16T06:17:05.399Z,66.59
2022-08-16T06:18:04.841Z,66.69
2022-08-16T06:19:05.159Z,66.59
2022-08-16T06:20:05.200Z,66.59
2022-08-16T06:21:05.378Z,66.78
2022-08-16T06:22:05.522Z,66.88
2022-08-16T06:23:16.912Z,66.88
2022-08-16T06:24:54.280Z,66.78
2022-08-16T06:25:07.034Z,66.88
2022-08-16T06:26:07.575Z,66.88
2022-08-16T06:27:06.352Z,66.78
2022-08-16T06:28:08.898Z,66.88
2022-08-16T06:29:07.782Z,66.78
2022-08-16T06:30:06.845Z,66.78
2022-08-16T06:31:07.027Z,66.69
2022-08-16T06:32:08.186Z,66.78
2022-08-16T06:33:07.355Z,66.69
2022-08-16T06:34:55.265Z,66.66
2022-08-16T06:35:08.695Z,66.66
2022-08-16T06:36:08.332Z,66.66
2022-08-16T06:37:08.047Z,66.56
2022-08-16T06:38:32.898Z,66.36
2022-08-16T06:39:09.517Z,66.46
2022-08-16T06:40:12.628Z,66.56
2022-08-16T06:41:13.832Z,67.25
2022-08-16T06:42:08.896Z,66.95
2022-08-16T06:43:09.059Z,66.66
2022-08-16T06:44:09.220Z,66.75
2022-08-16T06:45:10.393Z,66.33
2022-08-16T06:46:09.773Z,66.52
2022-08-16T06:47:09.731Z,66.42
2022-08-16T06:48:09.881Z,66.42
2022-08-16T06:49:10.898Z,66.52
2022-08-16T06:50:10.247Z,66.42
2022-08-16T06:51:11.412Z,66.23
2022-08-16T06:52:13.926Z,66.33
2022-08-16T06:53:11.734Z,66.42
2022-08-16T06:54:14.004Z,66.33
2022-08-16T06:55:13.583Z,66.23
2022-08-16T06:56:14.601Z,66.39
2022-08-16T06:57:16.875Z,66.30
2022-08-16T06:58:21.753Z,66.20
2022-08-16T06:59:12.754Z,66.30
2022-08-16T07:00:24.259Z,66.49
2022-08-16T07:01:15.040Z,66.20
2022-08-16T07:02:33.018Z,66.49
2022-08-16T07:03:26.873Z,66.49
2022-08-16T07:04:13.601Z,66.69
2022-08-16T07:05:15.017Z,66.89
2022-08-16T07:06:12.927Z,66.79
2022-08-16T07:07:14.491Z,66.69
2022-08-16T07:08:13.269Z,66.49
2022-08-16T07:09:13.451Z,66.69
2022-08-16T07:10:13.599Z,66.79
2022-08-16T07:11:13.771Z,66.79
2022-08-16T07:12:15.249Z,66.99
2022-08-16T07:13:23.028Z,66.99
2022-08-16T07:14:25.344Z,66.96
2022-08-16T07:15:17.071Z,67.05
2022-08-16T07:16:15.457Z,66.96
2022-08-16T07:17:14.785Z,66.96
2022-08-16T07:18:14.958Z,67.05
2022-08-16T07:19:15.152Z,67.05
2022-08-16T07:20:34.972Z,67.05
2022-08-16T07:21:16.493Z,67.15
2022-08-16T07:22:38.230Z,66.96
2022-08-16T07:23:16.841Z,66.96
2022-08-16T07:24:26.790Z,66.96
2022-08-16T07:25:17.250Z,66.85
2022-08-16T07:26:25.445Z,66.85
2022-08-16T07:27:17.563Z,66.85
2022-08-16T07:28:20.852Z,66.72
2022-08-16T07:29:17.899Z,66.53
2022-08-16T07:30:38.827Z,66.53
2022-08-16T07:31:18.251Z,66.43
2022-08-16T07:32:17.408Z,66.53
2022-08-16T07:33:52.336Z,66.43
2022-08-16T07:34:18.749Z,66.43
2022-08-16T07:35:17.939Z,66.33
2022-08-16T07:36:22.045Z,66.33
2022-08-16T07:37:18.250Z,66.13
2022-08-16T07:38:19.688Z,66.13
2022-08-16T07:39:18.589Z,66.23
2022-08-16T07:40:18.809Z,66.30
2022-08-16T07:41:19.951Z,66.20
2022-08-16T07:42:20.277Z,66.39
2022-08-16T07:43:20.277Z,66.39
2022-08-16T07:44:19.455Z,66.20
2022-08-16T07:45:19.673Z,66.39
2022-08-16T07:46:38.878Z,66.60
2022-08-16T07:47:24.634Z,66.39
2022-08-16T07:48:21.185Z,66.49
2022-08-16T07:49:20.350Z,66.39
2022-08-16T07:50:57.263Z,66.39
2022-08-16T07:51:21.695Z,66.60
2022-08-16T07:52:20.922Z,66.46
2022-08-16T07:53:21.078Z,66.36
2022-08-16T07:54:38.008Z,66.27
2022-08-16T07:55:22.388Z,66.27
2022-08-16T07:56:21.548Z,66.27
2022-08-16T07:57:24.184Z,66.07
2022-08-16T07:58:34.993Z,65.97
2022-08-16T07:59:23.038Z,66.17
2022-08-16T08:00:22.309Z,65.67
2022-08-16T08:01:22.451Z,66.03
2022-08-16T08:02:22.540Z,65.84
2022-08-16T08:03:23.721Z,65.64
2022-08-16T08:04:23.895Z,65.94
2022-08-16T08:05:25.614Z,66.14
2022-08-16T08:06:24.948Z,65.74
2022-08-16T08:07:28.118Z,65.74
2022-08-16T08:08:51.213Z,65.45
2022-08-16T08:09:24.803Z,65.35
2022-08-16T08:10:31.754Z,65.05
2022-08-16T08:11:25.153Z,65.22
2022-08-16T08:12:32.460Z,65.61
2022-08-16T08:13:37.267Z,65.22
2022-08-16T08:14:30.149Z,65.12
2022-08-16T08:15:25.462Z,64.73
2022-08-16T08:16:30.705Z,64.83
2022-08-16T08:17:43.071Z,65.41
2022-08-16T08:18:30.212Z,64.83
2022-08-16T08:19:26.520Z,64.89
2022-08-16T08:20:27.838Z,64.79
2022-08-16T08:21:27.276Z,64.20
2022-08-16T08:22:27.137Z,64.79
2022-08-16T08:23:26.308Z,64.59
2022-08-16T08:24:31.779Z,63.91
2022-08-16T08:25:27.651Z,64.11
2022-08-16T08:26:27.809Z,64.01
2022-08-16T08:27:26.990Z,64.79
2022-08-16T08:28:27.161Z,63.51
2022-08-16T08:29:37.696Z,63.32
2022-08-16T08:30:51.889Z,63.42
2022-08-16T08:31:28.664Z,62.93
2022-08-16T08:32:57.533Z,62.70
2022-08-16T08:33:29.119Z,62.70
2022-08-16T08:34:28.182Z,62.60
2022-08-16T08:35:28.597Z,62.60
2022-08-16T08:36:33.620Z,62.50
2022-08-16T08:37:53.934Z,62.60
2022-08-16T08:38:45.249Z,62.50
2022-08-16T08:39:30.118Z,62.40
2022-08-16T08:40:29.281Z,62.40
2022-08-16T08:41:29.430Z,62.30
2022-08-16T08:42:29.565Z,62.21
2022-08-16T08:43:29.756Z,62.21
2022-08-16T08:44:31.371Z,62.08
2022-08-16T08:45:46.952Z,62.11
2022-08-16T08:46:35.671Z,62.08
2022-08-16T08:47:31.491Z,62.08
2022-08-16T08:48:33.952Z,61.98
2022-08-16T08:49:46.210Z,61.98
2022-08-16T08:50:32.533Z,61.88
2022-08-16T08:51:35.709Z,61.68
2022-08-16T08:52:33.599Z,61.58
2022-08-16T08:53:31.600Z,61.58
2022-08-16T08:54:31.779Z,61.39
2022-08-16T08:55:31.940Z,61.39
2022-08-16T08:56:32.213Z,61.36
2022-08-16T08:57:32.299Z,61.26
2022-08-16T08:58:34.318Z,61.16
2022-08-16T08:59:32.631Z,60.97
2022-08-16T09:00:32.811Z,60.87
2022-08-16T09:01:36.498Z,60.87
2022-08-16T09:02:34.172Z,60.77
2022-08-16T09:03:33.370Z,60.58
2022-08-16T09:04:33.567Z,60.58
2022-08-16T09:05:35.682Z,60.47
2022-08-16T09:06:33.915Z,60.45
2022-08-16T09:07:34.065Z,60.55
2022-08-16T09:08:35.255Z,60.35
2022-08-16T09:09:37.758Z,60.25
2022-08-16T09:10:39.533Z,60.35
2022-08-16T09:11:41.047Z,60.15
2022-08-16T09:12:37.206Z,60.15
2022-08-16T09:13:35.129Z,59.95
2022-08-16T09:14:35.318Z,59.86
2022-08-16T09:15:35.508Z,59.86
2022-08-16T09:17:00.981Z,59.66
2022-08-16T09:17:54.611Z,59.44
2022-08-16T09:18:37.120Z,59.44
2022-08-16T09:19:36.205Z,59.34
2022-08-16T09:20:36.390Z,59.53
2022-08-16T09:21:37.570Z,59.44
2022-08-16T09:22:36.819Z,59.44
2022-08-16T09:23:37.129Z,59.34
2022-08-16T09:24:51.516Z,59.24
2022-08-16T09:25:38.276Z,59.01
2022-08-16T09:26:45.014Z,58.92
2022-08-16T09:27:57.311Z,58.82
2022-08-16T09:29:15.580Z,59.01
2022-08-16T09:29:45.400Z,58.82
2022-08-16T09:30:43.295Z,58.72
2022-08-16T09:31:41.314Z,58.53
2022-08-16T09:32:38.493Z,58.50
2022-08-16T09:33:39.333Z,58.50
2022-08-16T09:34:38.950Z,58.40
2022-08-16T09:35:39.470Z,58.40
2022-08-16T09:36:46.283Z,58.20
2022-08-16T09:37:40.406Z,58.01
2022-08-16T09:38:40.787Z,58.11
2022-08-16T09:39:41.532Z,58.11
2022-08-16T09:40:42.310Z,58.11
2022-08-16T09:41:40.035Z,58.17
2022-08-16T09:42:56.348Z,58.07
2022-08-16T09:43:59.976Z,58.07
2022-08-16T09:45:11.503Z,57.98
2022-08-16T09:45:41.733Z,57.98
2022-08-16T09:46:48.377Z,57.86
2022-08-16T09:47:56.512Z,57.76
2022-08-16T09:48:44.700Z,57.56
2022-08-16T09:49:42.440Z,57.46
2022-08-16T09:50:41.621Z,57.56
2022-08-16T09:51:41.781Z,57.36
2022-08-16T09:52:47.808Z,57.36
2022-08-16T09:53:43.278Z,57.26
2022-08-16T09:54:44.502Z,57.24
2022-08-16T09:55:44.306Z,57.34
2022-08-16T09:56:53.150Z,57.34
2022-08-16T09:57:43.852Z,57.24
2022-08-16T09:59:04.810Z,57.34
2022-08-16T09:59:44.214Z,57.34
2022-08-16T10:00:45.061Z,57.34
2022-08-16T10:01:47.094Z,57.14
2022-08-16T10:02:44.373Z,57.14
2022-08-16T10:04:01.118Z,57.34
2022-08-16T10:04:54.596Z,57.43
2022-08-16T10:05:45.278Z,57.31
2022-08-16T10:06:46.361Z,56.82
2022-08-16T10:07:45.410Z,56.82
2022-08-16T10:09:05.693Z,56.52
2022-08-16T10:09:55.737Z,56.92
2022-08-16T10:10:46.200Z,57.40
2022-08-16T10:11:50.307Z,57.60
2022-08-16T10:12:46.574Z,57.40
2022-08-16T10:13:46.736Z,57.11
2022-08-16T10:14:46.243Z,56.62
2022-08-16T10:15:47.041Z,56.79
2022-08-16T10:16:48.828Z,56.99
2022-08-16T10:18:01.471Z,56.79
2022-08-16T10:19:00.292Z,56.70
2022-08-16T10:19:50.301Z,56.01
2022-08-16T10:20:46.984Z,56.18
2022-08-16T10:21:47.147Z,56.47
2022-08-16T10:22:48.503Z,56.18
2022-08-16T10:23:47.535Z,56.05
2022-08-16T10:24:55.826Z,56.05
2022-08-16T10:27:18.564Z,55.76
2022-08-16T10:27:19.015Z,55.76
2022-08-16T10:27:53.325Z,55.76
2022-08-16T10:28:50.225Z,55.57
2022-08-16T10:30:00.263Z,55.63
2022-08-16T10:30:58.640Z,55.63
2022-08-16T10:31:53.689Z,55.63
2022-08-16T10:32:49.088Z,55.24
2022-08-16T10:33:49.290Z,55.44
2022-08-16T10:34:52.211Z,55.54
2022-08-16T10:35:49.649Z,55.32
2022-08-16T10:36:54.231Z,55.32
2022-08-16T10:37:50.142Z,55.12
2022-08-16T10:38:50.191Z,55.02
2022-08-16T10:39:50.397Z,54.60
2022-08-16T10:40:51.514Z,54.50
2022-08-16T10:41:50.691Z,54.60
2022-08-16T10:42:50.870Z,54.58
2022-08-16T10:43:51.052Z,54.60
2022-08-16T10:44:53.980Z,54.48
2022-08-16T10:45:59.794Z,54.48
2022-08-16T10:46:52.587Z,54.48
2022-08-16T10:48:00.922Z,54.38
2022-08-16T10:48:52.946Z,54.38
2022-08-16T10:49:52.117Z,54.28
2022-08-16T10:50:52.264Z,54.06
2022-08-16T10:52:01.342Z,53.97
2022-08-16T10:52:56.889Z,53.87
2022-08-16T10:53:53.816Z,53.77
2022-08-16T10:55:40.260Z,53.65
2022-08-16T10:55:57.603Z,53.55
2022-08-16T10:56:56.786Z,53.45
2022-08-16T10:57:53.528Z,53.26
2022-08-16T10:58:53.678Z,53.14
2022-08-16T10:59:57.755Z,52.84
2022-08-16T11:00:57.327Z,52.75
2022-08-16T11:02:57.694Z,52.23
2022-08-16T11:03:57.390Z,52.23
2022-08-16T11:05:10.715Z,52.04
2022-08-16T11:05:59.601Z,51.75
2022-08-16T11:07:43.130Z,51.62
2022-08-16T11:07:56.600Z,51.43
2022-08-16T11:10:19.850Z,51.14
2022-08-16T11:11:04.889Z,51.14
2022-08-16T11:12:14.328Z,50.95
2022-08-16T11:12:57.322Z,50.92
2022-08-16T11:13:59.327Z,50.73
2022-08-16T11:15:13.271Z,50.53
2022-08-16T11:15:58.026Z,50.51
2022-08-16T11:17:10.528Z,50.31
2022-08-16T11:19:04.231Z,50.12
2022-08-16T11:20:40.765Z,49.90
2022-08-16T11:20:58.548Z,49.90
2022-08-16T11:22:39.293Z,49.71
2022-08-16T11:22:58.869Z,49.61
2022-08-16T11:23:59.722Z,49.61
2022-08-16T11:25:59.454Z,49.39
2022-08-16T11:26:16.511Z,49.19
2022-08-16T11:27:59.762Z,48.80
2022-08-16T11:29:14.915Z,48.80
2022-08-16T11:30:00.132Z,48.80
2022-08-16T11:30:59.306Z,48.61
2022-08-16T11:31:59.497Z,48.52
2022-08-16T11:32:59.642Z,48.90
2022-08-16T11:33:59.822Z,49.58
2022-08-16T11:35:13.824Z,49.49
2022-08-16T11:37:01.533Z,49.10
2022-08-16T11:38:47.285Z,48.71
2022-08-16T11:39:02.035Z,48.61
2022-08-16T11:40:00.975Z,48.52
2022-08-16T11:41:01.076Z,48.32
2022-08-16T11:42:01.275Z,48.30
2022-08-16T11:43:01.450Z,48.30
2022-08-16T11:44:01.597Z,48.39
2022-08-16T11:45:01.765Z,47.89
2022-08-16T11:46:02.338Z,47.40
2022-08-16T11:47:03.123Z,47.50
2022-08-16T11:48:02.272Z,47.60
2022-08-16T11:49:02.466Z,47.69
2022-08-16T11:50:02.661Z,47.62
2022-08-16T11:51:02.841Z,48.00
2022-08-16T11:52:03.009Z,48.39
2022-08-16T11:53:03.707Z,48.30
2022-08-16T11:54:05.152Z,48.30
2022-08-16T11:55:04.513Z,48.30
2022-08-16T11:56:03.702Z,47.91
2022-08-16T11:57:03.826Z,48.03
2022-08-16T11:58:05.007Z,47.93
2022-08-16T11:59:04.174Z,47.93
2022-08-16T12:00:04.347Z,47.74
2022-08-16T12:01:04.507Z,47.55
2022-08-16T12:02:30.952Z,47.74
2022-08-16T12:03:05.906Z,47.55
2022-08-16T12:04:05.081Z,47.64
2022-08-16T12:05:05.208Z,48.03
2022-08-16T12:06:05.350Z,48.13
2022-08-16T12:07:05.541Z,48.13
2022-08-16T12:08:05.719Z,47.93
2022-08-16T12:09:05.889Z,47.93
2022-08-16T12:10:06.015Z,47.45
2022-08-16T12:11:06.208Z,47.64
2022-08-16T12:12:06.369Z,48.54
2022-08-16T12:13:06.561Z,48.54
2022-08-16T12:14:06.741Z,48.64
2022-08-16T12:15:06.893Z,48.25
2022-08-16T12:16:07.075Z,48.25
2022-08-16T12:17:08.240Z,48.15
2022-08-16T12:18:07.448Z,48.18
2022-08-16T12:19:10.782Z,47.88
2022-08-16T12:20:10.739Z,47.88
2022-08-16T12:21:07.962Z,48.08
2022-08-16T12:22:18.944Z,47.98
2022-08-16T12:23:09.337Z,48.27
2022-08-16T12:24:08.498Z,48.27
2022-08-16T12:25:08.683Z,48.27
2022-08-16T12:26:10.598Z,48.47
2022-08-16T12:27:09.030Z,48.18
2022-08-16T12:28:09.205Z,48.27
2022-08-16T12:29:09.385Z,47.98
2022-08-16T12:30:19.837Z,48.18
2022-08-16T12:31:10.756Z,47.88
2022-08-16T12:32:36.045Z,48.20
2022-08-16T12:33:11.117Z,48.08
2022-08-16T12:34:10.300Z,48.30
2022-08-16T12:35:11.475Z,48.58
2022-08-16T12:36:13.044Z,48.58
2022-08-16T12:37:11.649Z,48.58
2022-08-16T12:38:40.788Z,48.30
2022-08-16T12:39:12.203Z,48.20
2022-08-16T12:40:22.459Z,48.20
2022-08-16T12:41:12.528Z,48.49
2022-08-16T12:42:11.701Z,48.20
2022-08-16T12:43:11.911Z,48.58
2022-08-16T12:44:12.042Z,48.78
2022-08-16T12:45:13.226Z,48.00
2022-08-16T12:46:12.402Z,47.71
2022-08-16T12:47:12.568Z,48.49
2022-08-16T12:49:13.945Z,47.91
2022-08-16T12:50:14.982Z,47.91
2022-08-16T12:51:19.657Z,47.81
2022-08-16T12:52:33.439Z,47.61
2022-08-16T12:53:14.628Z,47.71
2022-08-16T12:54:13.781Z,47.52
2022-08-16T12:55:14.255Z,47.23
2022-08-16T12:56:14.142Z,46.45
2022-08-16T12:57:14.450Z,46.74
2022-08-16T12:58:48.415Z,46.94
2022-08-16T12:59:19.877Z,46.62
2022-08-16T13:00:26.818Z,46.42